createdAt,value
2022-11-09T00:01:32.336Z,99904.13
2022-11-09T00:04:01.061Z,99904.44
2022-11-09T00:06:29.137Z,99905.84
2022-11-09T00:08:55.756Z,99901.94
2022-11-09T00:11:22.446Z,99901.38
2022-11-09T00:13:49.018Z,99895.22
2022-11-09T00:16:17.040Z,99900.25
2022-11-09T00:18:47.390Z,99902.47
2022-11-09T00:21:19.192Z,99898.41
2022-11-09T00:23:45.911Z,99894.09
2022-11-09T00:26:14.748Z,99891.44
2022-11-09T00:28:41.392Z,99892.00
2022-11-09T00:31:11.070Z,99891.00
2022-11-09T00:33:37.526Z,99893.41
2022-11-09T00:36:09.710Z,99896.59
2022-11-09T00:38:36.767Z,99897.59
2022-11-09T00:41:04.903Z,99893.00
2022-11-09T00:43:31.347Z,99898.28
2022-11-09T00:45:57.835Z,99894.66
2022-11-09T00:48:24.289Z,99895.94
2022-11-09T00:50:55.396Z,99894.41
2022-11-09T00:53:23.139Z,99896.38
2022-11-09T00:56:02.661Z,99894.44
2022-11-09T00:58:31.390Z,99892.34
2022-11-09T01:00:59.230Z,99886.91
2022-11-09T01:03:26.362Z,99882.31
2022-11-09T01:05:53.125Z,99894.00
2022-11-09T01:08:19.669Z,99883.28
2022-11-09T01:10:48.092Z,99883.16
2022-11-09T01:13:16.423Z,99880.91
2022-11-09T01:15:44.992Z,99888.16
2022-11-09T01:18:11.437Z,99894.41
2022-11-09T01:20:42.488Z,99880.22
2022-11-09T01:23:09.987Z,99882.16
2022-11-09T01:25:36.766Z,99889.56
2022-11-09T01:28:03.580Z,99890.91
2022-11-09T01:30:33.455Z,99884.25
2022-11-09T01:32:59.909Z,99883.13
2022-11-09T01:35:26.344Z,99888.00
2022-11-09T01:37:52.776Z,99877.66
2022-11-09T01:40:19.259Z,99878.78
2022-11-09T01:42:45.899Z,99876.44
2022-11-09T01:45:18.152Z,99871.44
2022-11-09T01:47:48.800Z,99865.31
2022-11-09T01:50:19.244Z,99878.22
2022-11-09T01:52:48.573Z,99863.16
2022-11-09T01:55:20.406Z,99855.66
2022-11-09T01:58:09.906Z,99861.34
2022-11-09T02:00:38.979Z,99859.69
2022-11-09T02:03:09.864Z,99852.00
2022-11-09T02:05:37.697Z,99854.09
2022-11-09T02:08:05.349Z,99853.38
2022-11-09T02:10:44.864Z,99853.63
2022-11-09T02:13:13.158Z,99852.16
2022-11-09T02:15:44.429Z,99857.13
2022-11-09T02:18:12.204Z,99853.63
2022-11-09T02:20:50.407Z,99852.69
2022-11-09T02:23:17.787Z,99851.00
2022-11-09T02:25:51.613Z,99841.41
2022-11-09T02:28:18.069Z,99842.91
2022-11-09T02:30:46.823Z,99839.56
2022-11-09T02:33:13.259Z,99837.91
2022-11-09T02:35:39.660Z,99834.28
2022-11-09T02:38:08.834Z,99836.38
2022-11-09T02:40:37.861Z,99838.41
2022-11-09T02:43:05.826Z,99834.63
2022-11-09T02:45:32.319Z,99838.53
2022-11-09T02:47:59.028Z,99836.06
2022-11-09T02:50:26.374Z,99841.34
2022-11-09T02:52:52.791Z,99843.56
2022-11-09T02:55:19.215Z,99837.69
2022-11-09T02:57:45.800Z,99846.88
2022-11-09T03:00:12.901Z,99851.19
2022-11-09T03:02:39.334Z,99859.13
2022-11-09T03:05:06.398Z,99846.44
2022-11-09T03:07:32.855Z,99841.34
2022-11-09T03:09:59.365Z,99851.91
2022-11-09T03:12:31.584Z,99852.03
2022-11-09T03:15:03.937Z,99851.91
2022-11-09T03:17:31.810Z,99851.50
2022-11-09T03:19:58.248Z,99854.13
2022-11-09T03:22:24.659Z,99848.00
2022-11-09T03:24:51.158Z,99855.81
2022-11-09T03:27:17.869Z,99859.88
2022-11-09T03:29:44.428Z,99849.97
2022-11-09T03:32:10.868Z,99858.72
2022-11-09T03:34:37.298Z,99859.41
2022-11-09T03:37:04.158Z,99861.47
2022-11-09T03:39:30.639Z,99857.44
2022-11-09T03:41:57.074Z,99854.25
2022-11-09T03:44:23.563Z,99854.72
2022-11-09T03:46:49.984Z,99847.78
2022-11-09T03:49:16.457Z,99851.94
2022-11-09T03:51:42.859Z,99839.13
2022-11-09T03:54:09.371Z,99843.44
2022-11-09T03:56:35.846Z,99843.44
2022-11-09T03:59:02.282Z,99838.31
2022-11-09T04:01:29.244Z,99836.28
2022-11-09T04:03:55.728Z,99839.66
2022-11-09T04:06:22.322Z,99834.44
2022-11-09T04:08:51.505Z,99834.00
2022-11-09T04:11:18.189Z,99833.84
2022-11-09T04:13:44.741Z,99835.66
2022-11-09T04:16:11.227Z,99827.03
2022-11-09T04:18:37.861Z,99828.03
2022-11-09T04:21:04.386Z,99835.75
2022-11-09T04:23:30.895Z,99836.88
2022-11-09T04:25:59.561Z,99830.34
2022-11-09T04:28:26.488Z,99826.78
2022-11-09T04:30:52.961Z,99825.38
2022-11-09T04:33:19.927Z,99833.50
2022-11-09T04:35:46.738Z,99828.19
2022-11-09T04:38:14.099Z,99834.00
2022-11-09T04:40:40.803Z,99832.28
2022-11-09T04:43:09.518Z,99828.72
2022-11-09T04:45:36.014Z,99832.91
2022-11-09T04:48:05.554Z,99828.19
2022-11-09T04:50:32.744Z,99829.31
2022-11-09T04:53:13.408Z,99829.41
2022-11-09T04:55:40.484Z,99830.38
2022-11-09T04:58:07.288Z,99824.91
2022-11-09T05:00:34.275Z,99827.84
2022-11-09T05:03:05.053Z,99832.31
2022-11-09T05:05:33.813Z,99826.47
2022-11-09T05:08:00.230Z,99824.94
2022-11-09T05:10:26.800Z,99818.06
2022-11-09T05:13:04.445Z,99822.25
2022-11-09T05:15:31.382Z,99820.59
2022-11-09T05:17:58.135Z,99820.72
2022-11-09T05:20:24.892Z,99818.91
2022-11-09T05:23:10.040Z,99821.09
2022-11-09T05:25:36.464Z,99824.38
2022-11-09T05:28:03.085Z,99824.50
2022-11-09T05:30:29.587Z,99818.81
2022-11-09T05:32:55.997Z,99827.94
2022-11-09T05:35:22.577Z,99820.03
2022-11-09T05:37:49.807Z,99827.50
2022-11-09T05:40:17.765Z,99826.03
2022-11-09T05:42:44.679Z,99836.59
2022-11-09T05:45:40.712Z,99833.47
2022-11-09T05:48:03.544Z,99835.78
2022-11-09T05:50:29.968Z,99831.53
2022-11-09T05:52:59.143Z,99833.53
2022-11-09T05:55:25.712Z,99825.91
2022-11-09T05:57:52.204Z,99822.97
2022-11-09T06:00:18.941Z,99825.56
2022-11-09T06:02:45.548Z,99830.50
2022-11-09T06:05:12.215Z,99828.63
2022-11-09T06:07:38.767Z,99825.31
2022-11-09T06:10:05.895Z,99833.91
2022-11-09T06:12:32.362Z,99830.56
2022-11-09T06:14:59.462Z,99830.88
2022-11-09T06:17:26.243Z,99830.84
2022-11-09T06:19:52.894Z,99836.72
2022-11-09T06:22:19.560Z,99835.66
2022-11-09T06:24:46.105Z,99832.31
2022-11-09T06:27:12.656Z,99837.19
2022-11-09T06:29:39.112Z,99852.66
2022-11-09T06:32:05.759Z,99848.75
2022-11-09T06:34:32.219Z,99848.97
2022-11-09T06:36:59.036Z,99853.56
2022-11-09T06:39:25.498Z,99852.88
2022-11-09T06:41:51.928Z,99846.31
2022-11-09T06:44:18.353Z,99851.91
2022-11-09T06:46:44.766Z,99850.66
2022-11-09T06:50:40.368Z,99831.88
2022-11-09T06:53:09.626Z,99832.97
2022-11-09T06:55:36.752Z,99831.63
2022-11-09T06:58:11.488Z,99830.28
2022-11-09T07:00:38.391Z,99826.41
2022-11-09T07:03:04.815Z,99833.66
2022-11-09T07:05:31.441Z,99830.31
2022-11-09T07:07:58.243Z,99829.91
2022-11-09T07:10:25.228Z,99833.38
2022-11-09T07:12:51.803Z,99834.09
2022-11-09T07:15:18.757Z,99840.22
2022-11-09T07:17:45.256Z,99823.69
2022-11-09T07:20:12.167Z,99836.66
2022-11-09T07:22:39.892Z,99838.72
2022-11-09T07:25:07.848Z,99841.53
2022-11-09T07:27:34.380Z,99839.88
2022-11-09T07:30:01.003Z,99844.59
2022-11-09T07:33:02.043Z,99846.81
2022-11-09T07:35:14.403Z,99842.94
2022-11-09T07:37:40.822Z,99848.53
2022-11-09T07:40:08.201Z,99847.81
2022-11-09T07:42:34.762Z,99848.22
2022-11-09T07:45:01.265Z,99855.63
2022-11-09T07:47:27.914Z,99841.94
2022-11-09T07:49:54.412Z,99840.94
2022-11-09T07:52:20.854Z,99848.03
2022-11-09T07:54:51.938Z,99848.16
2022-11-09T07:57:18.842Z,99852.16
2022-11-09T07:59:45.355Z,99848.91
2022-11-09T08:02:12.848Z,99853.00
2022-11-09T08:04:39.695Z,99844.28
2022-11-09T08:07:06.293Z,99847.97
2022-11-09T08:09:32.967Z,99845.66
2022-11-09T08:12:02.168Z,99841.75
2022-11-09T08:14:29.498Z,99840.81
2022-11-09T08:16:56.745Z,99851.38
2022-11-09T08:19:23.353Z,99853.56
2022-11-09T08:21:50.140Z,99849.41
2022-11-09T08:24:16.696Z,99841.00
2022-11-09T08:26:43.408Z,99854.34
2022-11-09T08:29:09.978Z,99853.66
2022-11-09T08:31:36.906Z,99858.16
2022-11-09T08:34:03.733Z,99853.47
2022-11-09T08:36:31.429Z,99862.72
2022-11-09T08:38:59.311Z,99851.97
2022-11-09T08:41:25.930Z,99852.00
2022-11-09T08:43:52.617Z,99852.94
2022-11-09T08:46:19.356Z,99844.44
2022-11-09T08:48:46.937Z,99866.16
2022-11-09T08:51:13.564Z,99856.88
2022-11-09T08:53:40.319Z,99838.66
2022-11-09T08:56:08.264Z,99851.31
2022-11-09T08:58:35.211Z,99846.34
2022-11-09T09:01:01.963Z,99856.13
2022-11-09T09:03:29.476Z,99840.00
2022-11-09T09:05:56.118Z,99841.41
2022-11-09T09:08:23.837Z,99854.22
2022-11-09T09:10:50.715Z,99861.47
2022-11-09T09:13:19.337Z,99858.84
2022-11-09T09:15:48.478Z,99859.94
2022-11-09T09:18:15.167Z,99857.34
2022-11-09T09:20:41.699Z,99861.41
2022-11-09T09:23:08.244Z,99858.31
2022-11-09T09:25:34.985Z,99851.16
2022-11-09T09:28:01.620Z,99856.50
2022-11-09T09:30:29.370Z,99851.19
2022-11-09T09:33:02.019Z,99849.63
2022-11-09T09:35:29.817Z,99855.75
2022-11-09T09:37:58.724Z,99863.34
2022-11-09T09:40:35.355Z,99853.59
2022-11-09T09:43:02.068Z,99852.94
2022-11-09T09:45:32.832Z,99848.97
2022-11-09T09:48:05.428Z,99850.66
2022-11-09T09:50:38.221Z,99846.03
2022-11-09T09:53:24.147Z,99849.50
2022-11-09T09:55:56.307Z,99845.84
2022-11-09T09:58:31.753Z,99838.00
2022-11-09T10:01:15.480Z,99847.19
2022-11-09T10:03:42.280Z,99844.66
2022-11-09T10:06:15.063Z,99855.69
2022-11-09T10:08:57.085Z,99849.00
2022-11-09T10:11:46.393Z,99843.16
2022-11-09T10:14:29.783Z,99842.31
2022-11-09T10:17:14.800Z,99842.31
2022-11-09T10:19:58.454Z,99840.34
2022-11-09T10:22:49.901Z,99842.31
2022-11-09T10:25:43.318Z,99834.16
2022-11-09T10:28:15.363Z,99830.00
2022-11-09T10:30:42.322Z,99836.34
2022-11-09T10:33:11.395Z,99833.16
2022-11-09T10:36:03.844Z,99825.84
2022-11-09T10:38:38.736Z,99836.34
2022-11-09T10:41:32.722Z,99829.19
2022-11-09T10:43:59.777Z,99836.34
2022-11-09T10:46:26.259Z,99843.53
2022-11-09T10:48:54.288Z,99831.34
2022-11-09T10:51:35.868Z,99828.03
2022-11-09T10:54:28.335Z,99834.34
2022-11-09T10:57:06.636Z,99830.50
2022-11-09T10:59:39.952Z,99825.31
2022-11-09T11:02:24.432Z,99826.84
2022-11-09T11:05:16.586Z,99827.00
2022-11-09T11:07:43.477Z,99822.22
2022-11-09T11:10:15.832Z,99837.16
2022-11-09T11:12:51.596Z,99826.97
2022-11-09T11:15:32.569Z,99824.16
2022-11-09T11:18:04.996Z,99827.97
2022-11-09T11:20:35.935Z,99820.97
2022-11-09T11:23:13.272Z,99821.75
2022-11-09T11:25:59.264Z,99823.06
2022-11-09T11:28:47.890Z,99813.06
2022-11-09T11:31:16.385Z,99819.81
2022-11-09T11:33:42.934Z,99825.97
2022-11-09T11:36:20.837Z,99819.28
2022-11-09T11:38:57.713Z,99814.19
2022-11-09T11:41:24.366Z,99817.22
2022-11-09T11:43:56.850Z,99814.41
2022-11-09T11:46:37.424Z,99818.28
2022-11-09T11:49:33.378Z,99825.59
2022-11-09T11:52:10.741Z,99834.56
2022-11-09T11:55:13.962Z,99832.97
2022-11-09T11:57:49.116Z,99836.56
2022-11-09T12:00:18.292Z,99832.19
2022-11-09T12:03:05.956Z,99836.19
2022-11-09T12:05:57.453Z,99834.66
2022-11-09T12:08:29.367Z,99835.84
2022-11-09T12:10:58.328Z,99835.22
2022-11-09T12:13:49.671Z,99820.47
2022-11-09T12:16:29.371Z,99824.78
2022-11-09T12:19:14.369Z,99816.47
2022-11-09T12:21:52.701Z,99813.47
2022-11-09T12:24:35.628Z,99813.78
2022-11-09T12:27:31.129Z,99811.72
2022-11-09T12:30:06.391Z,99803.88
2022-11-09T12:32:59.425Z,99809.31
2022-11-09T12:35:42.290Z,99800.38
2022-11-09T12:38:17.238Z,99804.16
2022-11-09T12:40:59.035Z,99813.34
2022-11-09T12:43:29.678Z,99811.19
2022-11-09T12:45:57.581Z,99816.06
2022-11-09T12:48:35.376Z,99804.94
2022-11-09T12:51:04.015Z,99809.50
2022-11-09T12:53:34.300Z,99811.97
2022-11-09T12:56:10.107Z,99806.47
2022-11-09T12:58:37.970Z,99816.63
2022-11-09T13:01:06.571Z,99811.41
2022-11-09T13:03:35.625Z,99817.94
2022-11-09T13:06:27.884Z,99824.59
2022-11-09T13:09:13.456Z,99830.13
2022-11-09T13:11:42.456Z,99823.94
2022-11-09T13:14:27.039Z,99830.47
2022-11-09T13:17:01.957Z,99826.97
2022-11-09T13:19:34.619Z,99814.34
2022-11-09T13:22:16.089Z,99817.50
2022-11-09T13:25:00.164Z,99814.03
2022-11-09T13:27:32.622Z,99814.00
2022-11-09T13:30:00.721Z,99812.38
2022-11-09T13:32:29.506Z,99814.53
2022-11-09T13:35:00.641Z,99812.84
2022-11-09T13:37:36.081Z,99807.84
2022-11-09T13:40:31.235Z,99814.34
2022-11-09T13:43:16.447Z,99807.34
2022-11-09T13:45:56.519Z,99807.84
2022-11-09T13:48:39.531Z,99816.69
2022-11-09T13:51:09.052Z,99816.19
2022-11-09T13:53:38.626Z,99811.03
2022-11-09T13:56:33.683Z,99815.19
2022-11-09T13:59:09.980Z,99809.00
2022-11-09T14:01:48.530Z,99807.53
2022-11-09T14:04:25.947Z,99812.38
2022-11-09T14:07:12.699Z,99821.34
2022-11-09T14:09:58.544Z,99827.69
2022-11-09T14:12:42.057Z,99829.03
2022-11-09T14:15:30.863Z,99820.69
2022-11-09T14:18:13.643Z,99827.34
2022-11-09T14:20:58.542Z,99830.69
2022-11-09T14:23:32.285Z,99829.69
2022-11-09T14:26:06.886Z,99842.50
2022-11-09T14:28:34.848Z,99843.00
2022-11-09T14:31:02.176Z,99850.34
2022-11-09T14:33:34.852Z,99841.00
2022-11-09T14:36:02.970Z,99838.03
2022-11-09T14:38:35.934Z,99848.00
2022-11-09T14:41:03.454Z,99835.53
2022-11-09T14:43:47.635Z,99839.69
2022-11-09T14:46:20.864Z,99836.50
2022-11-09T14:49:00.662Z,99840.00
2022-11-09T14:51:38.696Z,99836.34
2022-11-09T14:54:12.752Z,99834.00
2022-11-09T14:56:40.106Z,99835.66
2022-11-09T14:59:14.709Z,99836.00
2022-11-09T15:01:41.538Z,99837.16
2022-11-09T15:04:11.401Z,99838.13
2022-11-09T15:06:46.624Z,99836.34
2022-11-09T15:09:19.569Z,99834.81
2022-11-09T15:11:46.537Z,99838.31
2022-11-09T15:14:35.002Z,99834.97
2022-11-09T15:17:15.480Z,99824.66
2022-11-09T15:19:50.287Z,99816.69
2022-11-09T15:22:49.547Z,99829.28
2022-11-09T15:25:34.536Z,99822.66
2022-11-09T15:28:12.792Z,99825.63
2022-11-09T15:30:45.664Z,99824.78
2022-11-09T15:33:21.342Z,99816.28
2022-11-09T15:35:53.115Z,99818.31
2022-11-09T15:38:39.390Z,99814.28
2022-11-09T15:41:18.681Z,99817.59
2022-11-09T15:43:45.613Z,99820.25
2022-11-09T15:46:24.752Z,99817.94
2022-11-09T15:48:51.842Z,99822.28
2022-11-09T15:51:18.464Z,99827.94
2022-11-09T15:53:45.126Z,99823.94
2022-11-09T15:56:20.447Z,99830.56
2022-11-09T15:58:49.100Z,99820.75
2022-11-09T16:01:16.225Z,99814.09
2022-11-09T16:03:42.817Z,99815.25
2022-11-09T16:06:22.365Z,99822.44
2022-11-09T16:08:50.029Z,99821.91
2022-11-09T16:11:16.743Z,99821.91
2022-11-09T16:13:43.414Z,99818.06
2022-11-09T16:16:12.358Z,99810.56
2022-11-09T16:18:38.939Z,99820.06
2022-11-09T16:21:23.935Z,99807.25
2022-11-09T16:23:55.655Z,99808.06
2022-11-09T16:26:24.698Z,99810.88
2022-11-09T16:28:51.340Z,99808.34
2022-11-09T16:31:25.249Z,99814.19
2022-11-09T16:34:01.643Z,99809.00
2022-11-09T16:36:29.546Z,99808.66
2022-11-09T16:38:56.794Z,99806.81
2022-11-09T16:41:23.821Z,99815.97
2022-11-09T16:43:55.531Z,99816.78
2022-11-09T16:46:24.257Z,99828.06
2022-11-09T16:48:50.988Z,99833.56
2022-11-09T16:51:17.485Z,99828.25
2022-11-09T16:53:44.347Z,99828.75
2022-11-09T16:56:11.000Z,99825.25
2022-11-09T16:58:37.507Z,99831.28
2022-11-09T17:01:11.618Z,99822.03
2022-11-09T17:03:39.098Z,99821.06
2022-11-09T17:06:07.383Z,99806.09
2022-11-09T17:08:33.839Z,99814.41
2022-11-09T17:11:00.396Z,99812.41
2022-11-09T17:13:26.941Z,99811.28
2022-11-09T17:15:53.524Z,99807.25
2022-11-09T17:18:20.437Z,99810.16
2022-11-09T17:20:49.264Z,99814.19
2022-11-09T17:23:18.805Z,99813.97
2022-11-09T17:25:59.658Z,99813.84
2022-11-09T17:28:26.750Z,99811.16
2022-11-09T17:30:53.966Z,99807.97
2022-11-09T17:33:20.744Z,99823.78
2022-11-09T17:35:47.570Z,99821.91
2022-11-09T17:38:14.118Z,99815.09
2022-11-09T17:40:40.553Z,99811.75
2022-11-09T17:43:07.122Z,99816.06
2022-11-09T17:45:35.351Z,99811.22
2022-11-09T17:48:01.816Z,99817.31
2022-11-09T17:50:28.891Z,99807.41
2022-11-09T17:52:55.319Z,99820.19
2022-11-09T17:55:21.822Z,99811.38
2022-11-09T17:57:48.648Z,99803.78
2022-11-09T18:00:15.491Z,99807.72
2022-11-09T18:02:42.393Z,99817.06
2022-11-09T18:05:10.904Z,99815.00
2022-11-09T18:07:37.376Z,99822.25
2022-11-09T18:10:04.220Z,99815.13
2022-11-09T18:12:30.725Z,99802.66
2022-11-09T18:14:57.231Z,99812.00
2022-11-09T18:17:23.778Z,99811.47
2022-11-09T18:19:50.230Z,99816.13
2022-11-09T18:22:16.729Z,99817.91
2022-11-09T18:24:43.200Z,99809.66
2022-11-09T18:27:09.681Z,99817.00
2022-11-09T18:29:36.096Z,99815.63
2022-11-09T18:32:02.525Z,99812.78
2022-11-09T18:34:29.221Z,99819.59
2022-11-09T18:36:55.710Z,99816.13
2022-11-09T18:39:22.195Z,99818.44
2022-11-09T18:41:48.750Z,99816.03
2022-11-09T18:44:15.287Z,99813.25
2022-11-09T18:46:41.771Z,99824.47
2022-11-09T18:49:13.907Z,99815.31
2022-11-09T18:51:40.846Z,99825.59
2022-11-09T18:54:07.321Z,99820.91
2022-11-09T18:56:34.072Z,99829.31
2022-11-09T18:59:00.904Z,99824.00
2022-11-09T19:01:27.611Z,99820.06
2022-11-09T19:03:59.003Z,99840.94
2022-11-09T19:06:26.551Z,99844.97
2022-11-09T19:09:11.885Z,99835.63
2022-11-09T19:11:38.449Z,99836.13
2022-11-09T19:14:04.924Z,99838.28
2022-11-09T19:16:31.419Z,99839.41
2022-11-09T19:18:58.213Z,99838.75
2022-11-09T19:21:24.703Z,99840.16
2022-11-09T19:23:51.693Z,99831.59
2022-11-09T19:26:18.390Z,99845.44
2022-11-09T19:28:44.922Z,99848.31
2022-11-09T19:31:13.569Z,99853.91
2022-11-09T19:33:40.135Z,99850.41
2022-11-09T19:36:29.095Z,99855.72
2022-11-09T19:38:53.622Z,99861.81
2022-11-09T19:41:20.384Z,99859.44
2022-11-09T19:43:50.886Z,99851.88
2022-11-09T19:46:17.774Z,99850.50
2022-11-09T19:48:45.736Z,99845.41
2022-11-09T19:51:13.005Z,99839.97
2022-11-09T19:53:42.375Z,99837.13
2022-11-09T19:56:09.636Z,99838.66
2022-11-09T19:58:36.303Z,99833.50
2022-11-09T20:01:04.586Z,99834.78
2022-11-09T20:03:31.178Z,99828.41
2022-11-09T20:05:57.939Z,99832.34
2022-11-09T20:08:25.247Z,99839.88
2022-11-09T20:10:52.447Z,99844.94
2022-11-09T20:13:20.100Z,99842.09
2022-11-09T20:15:46.726Z,99839.75
2022-11-09T20:18:13.427Z,99838.63
2022-11-09T20:20:40.007Z,99849.09
2022-11-09T20:23:06.610Z,99849.38
2022-11-09T20:25:33.156Z,99842.59
2022-11-09T20:27:59.956Z,99843.44
2022-11-09T20:30:26.572Z,99845.44
2022-11-09T20:32:53.158Z,99840.66
2022-11-09T20:35:19.884Z,99850.47
2022-11-09T20:37:46.488Z,99844.38
2022-11-09T20:40:13.254Z,99850.41
2022-11-09T20:42:39.709Z,99852.53
2022-11-09T20:45:06.444Z,99858.81
2022-11-09T20:48:02.856Z,99851.09
2022-11-09T20:50:20.214Z,99843.88
2022-11-09T20:52:46.701Z,99851.69
2022-11-09T20:55:13.763Z,99848.25
2022-11-09T20:57:40.297Z,99837.91
2022-11-09T21:00:07.748Z,99829.38
2022-11-09T21:02:34.253Z,99829.97
2022-11-09T21:05:01.242Z,99834.16
2022-11-09T21:07:27.735Z,99839.34
2022-11-09T21:09:54.245Z,99840.88
2022-11-09T21:12:24.976Z,99837.25
2022-11-09T21:14:52.971Z,99842.81
2022-11-09T21:17:20.109Z,99830.44
2022-11-09T21:19:46.851Z,99838.66
2022-11-09T21:22:13.747Z,99839.81
2022-11-09T21:24:58.932Z,99834.22
2022-11-09T21:27:47.859Z,99842.88
2022-11-09T21:30:15.107Z,99833.66
2022-11-09T21:32:41.680Z,99837.19
2022-11-09T21:35:08.621Z,99831.72
2022-11-09T21:37:35.137Z,99831.06
2022-11-09T21:40:01.671Z,99835.09
2022-11-09T21:42:30.863Z,99843.72
2022-11-09T21:44:57.495Z,99839.81
2022-11-09T21:47:24.455Z,99842.91
2022-11-09T21:49:50.963Z,99842.34
2022-11-09T21:52:17.463Z,99837.06
2022-11-09T21:54:43.934Z,99830.38
2022-11-09T21:57:10.445Z,99832.91
2022-11-09T21:59:36.991Z,99831.22
2022-11-09T22:02:03.687Z,99842.22
2022-11-09T22:04:30.099Z,99836.25
2022-11-09T22:06:56.647Z,99844.06
2022-11-09T22:09:23.311Z,99844.19
2022-11-09T22:12:08.852Z,99834.72
2022-11-09T22:14:54.220Z,99838.06
2022-11-09T22:17:20.993Z,99835.00
2022-11-09T22:20:06.270Z,99832.06
2022-11-09T22:22:34.027Z,99837.06
2022-11-09T22:25:00.471Z,99841.25
2022-11-09T22:27:27.553Z,99836.94
2022-11-09T22:29:54.030Z,99822.88
2022-11-09T22:32:20.673Z,99830.13
2022-11-09T22:34:47.220Z,99840.13
2022-11-09T22:37:13.831Z,99835.00
2022-11-09T22:39:45.862Z,99827.88
2022-11-09T22:42:13.632Z,99826.19
2022-11-09T22:44:40.091Z,99826.47
2022-11-09T22:47:06.556Z,99824.53
2022-11-09T22:49:34.199Z,99825.38
2022-11-09T22:52:00.626Z,99833.88
2022-11-09T22:54:27.919Z,99831.75
2022-11-09T22:56:54.389Z,99829.53
2022-11-09T22:59:20.862Z,99829.41
2022-11-09T23:01:48.187Z,99833.59
2022-11-09T23:04:14.666Z,99833.19
2022-11-09T23:06:41.169Z,99829.00
2022-11-09T23:09:07.968Z,99832.59
2022-11-09T23:11:34.414Z,99831.94
2022-11-09T23:14:00.918Z,99833.72
2022-11-09T23:16:27.572Z,99835.84
2022-11-09T23:18:54.757Z,99838.19
2022-11-09T23:21:26.912Z,99828.03
2022-11-09T23:23:55.267Z,99824.00
2022-11-09T23:26:22.632Z,99832.59
2022-11-09T23:28:49.366Z,99839.00
2022-11-09T23:31:19.356Z,99850.06
2022-11-09T23:33:48.129Z,99853.94
2022-11-09T23:36:14.760Z,99852.69
2022-11-09T23:38:41.320Z,99853.25
2022-11-09T23:41:09.471Z,99846.41
2022-11-09T23:43:36.663Z,99856.56
2022-11-09T23:46:06.447Z,99859.47
2022-11-09T23:48:33.141Z,99863.25
2022-11-09T23:51:00.543Z,99865.78
2022-11-09T23:53:29.025Z,99859.34
2022-11-09T23:56:03.412Z,99852.13
2022-11-09T23:58:30.376Z,99845.88
